Time;durP1;ratioP1;P1;durP2;ratioP2;P2;SDS_P1;SDS_P2;PMS_P1;PMS_P2;Temp;Humidity;BMP_temperature;BMP_pressure;BME280_temperature;BME280_humidity;BME280_pressure;Samples;Min_cycle;Max_cycle;Signal;HPM_P1;HPM_P2
2021/12/27 00:08:10;;;;;;;117.82;10.38;;;;;;;2.15;100.00;94784.56;30480798;19;20002;-83
2021/12/27 00:18:11;;;;;;;141.02;15.65;;;;;;;2.10;100.00;94773.38;30414324;19;20468;-84
2021/12/27 00:28:12;;;;;;;62.58;10.15;;;;;;;2.13;100.00;94763.16;30461157;19;20011;-84
2021/12/27 00:38:12;;;;;;;27.83;8.82;;;;;;;2.18;100.00;94768.34;30500027;19;20021;-85
2021/12/27 00:48:15;;;;;;;41.45;12.32;;;;;;;2.13;100.00;94765.00;30488599;19;19998;-82
2021/12/27 00:58:15;;;;;;;70.40;17.17;;;;;;;2.13;100.00;94741.50;30464896;19;20022;-83
2021/12/27 01:08:17;;;;;;;50.47;11.90;;;;;;;2.20;100.00;94745.34;30479629;19;20425;-84
2021/12/27 01:18:19;;;;;;;53.78;11.05;;;;;;;2.16;100.00;94741.72;30477237;19;20631;-84
2021/12/27 01:28:20;;;;;;;21.05;8.88;;;;;;;2.13;100.00;94755.34;30481100;19;20285;-82
2021/12/27 01:38:21;;;;;;;45.30;10.57;;;;;;;2.18;100.00;94746.69;30507159;19;20011;-83
2021/12/27 01:48:24;;;;;;;53.10;9.65;;;;;;;2.19;100.00;94745.66;30528627;19;20022;-84
2021/12/27 01:58:26;;;;;;;65.05;7.90;;;;;;;2.22;100.00;94751.09;30457782;19;20383;-83
2021/12/27 02:08:28;;;;;;;31.45;8.00;;;;;;;2.19;100.00;94743.03;30476422;19;20034;-83
2021/12/27 02:18:28;;;;;;;21.90;7.45;;;;;;;2.23;100.00;94746.66;30492215;19;20034;-83
2021/12/27 02:28:29;;;;;;;50.17;10.07;;;;;;;2.28;100.00;94725.72;30462022;19;20006;-83
2021/12/27 02:38:31;;;;;;;36.33;10.18;;;;;;;2.32;100.00;94725.97;30482879;19;20486;-83
2021/12/27 02:48:38;;;;;;;103.05;10.23;;;;;;;2.38;100.00;94719.66;30492330;19;20002;-84
2021/12/27 02:58:39;;;;;;;37.22;8.02;;;;;;;2.41;100.00;94712.06;30471604;19;20005;-83
2021/12/27 03:08:41;;;;;;;76.28;9.13;;;;;;;2.40;100.00;94712.31;30411909;19;20002;-83
2021/12/27 03:18:48;;;;;;;38.95;9.05;;;;;;;2.45;100.00;94704.44;30394013;19;20031;-83
2021/12/27 03:28:49;;;;;;;41.83;7.35;;;;;;;2.44;100.00;94691.66;30448959;19;20011;-83
2021/12/27 03:38:52;;;;;;;70.20;9.90;;;;;;;2.46;100.00;94692.94;30427905;19;19999;-84
2021/12/27 03:48:53;;;;;;;109.18;11.55;;;;;;;2.45;100.00;94678.31;30456676;19;20427;-83
2021/12/27 03:59:08;;;;;;;95.53;12.15;;;;;;;2.46;100.00;94669.44;30510335;19;20461;-83
2021/12/27 04:09:08;;;;;;;195.93;15.43;;;;;;;2.49;100.00;94666.25;30451263;19;20002;-83
2021/12/27 04:19:08;;;;;;;179.93;13.02;;;;;;;2.47;100.00;94664.97;30513583;19;20011;-83
2021/12/27 04:29:09;;;;;;;146.82;12.80;;;;;;;2.54;100.00;94649.75;30507544;19;20026;-83
2021/12/27 04:39:09;;;;;;;204.32;12.82;;;;;;;2.61;100.00;94650.22;30487885;19;20010;-83
2021/12/27 04:49:09;;;;;;;241.73;14.50;;;;;;;2.53;100.00;94648.97;30519402;19;20082;-83
2021/12/27 04:59:10;;;;;;;309.88;18.58;;;;;;;2.63;100.00;94649.94;30515957;19;20018;-84
2021/12/27 05:09:11;;;;;;;148.07;11.43;;;;;;;2.63;100.00;94642.09;30499987;19;20014;-84
2021/12/27 05:19:11;;;;;;;264.85;17.02;;;;;;;2.74;100.00;94618.22;30478016;19;20002;-84
2021/12/27 05:29:11;;;;;;;57.22;8.45;;;;;;;2.77;100.00;94604.56;30511576;19;20466;-83
2021/12/27 05:39:21;;;;;;;82.32;8.82;;;;;;;2.88;100.00;94607.88;30474411;19;20074;-83
2021/12/27 05:49:23;;;;;;;47.88;7.65;;;;;;;2.97;100.00;94605.44;30491542;19;20010;-84
2021/12/27 05:59:23;;;;;;;322.77;16.02;;;;;;;3.07;100.00;94599.31;30485384;19;20009;-83
2021/12/27 06:09:23;;;;;;;196.60;12.02;;;;;;;3.10;100.00;94593.50;30526936;19;20462;-83
2021/12/27 06:19:24;;;;;;;77.75;9.52;;;;;;;3.11;100.00;94588.00;30506923;19;20364;-84
2021/12/27 06:29:24;;;;;;;183.98;11.50;;;;;;;3.12;100.00;94586.94;30509883;19;20026;-83
2021/12/27 06:49:32;;;;;;;40.05;7.20;;;;;;;3.30;100.00;94590.63;30560612;19;20011;-83
2021/12/27 06:59:32;;;;;;;13.43;3.92;;;;;;;3.37;100.00;94587.66;30516922;19;20035;-85
2021/12/27 07:09:33;;;;;;;10.17;4.57;;;;;;;3.38;100.00;94574.31;30478457;19;20360;-82
2021/12/27 07:19:33;;;;;;;16.25;4.93;;;;;;;3.43;100.00;94576.06;30538249;19;20267;-82
2021/12/27 07:29:34;;;;;;;475.02;26.80;;;;;;;3.44;100.00;94566.41;30552834;19;20111;-83
2021/12/27 07:39:34;;;;;;;660.83;36.35;;;;;;;3.47;100.00;94557.97;30538327;19;20084;-83
2021/12/27 07:49:34;;;;;;;427.33;26.85;;;;;;;3.59;100.00;94561.72;30528897;19;20258;-83
2021/12/27 07:59:35;;;;;;;153.27;13.68;;;;;;;3.60;100.00;94565.13;30531699;19;20018;-84
2021/12/27 08:09:36;;;;;;;24.42;6.05;;;;;;;3.71;100.00;94557.91;30521140;19;20002;-84
2021/12/27 08:19:36;;;;;;;27.90;6.05;;;;;;;3.80;100.00;94561.44;30535837;19;20022;-84
2021/12/27 08:29:37;;;;;;;25.55;6.45;;;;;;;3.79;100.00;94554.66;30533306;19;20006;-84
2021/12/27 08:39:40;;;;;;;53.25;8.10;;;;;;;3.94;100.00;94537.91;30545992;19;20255;-84
2021/12/27 08:49:41;;;;;;;244.20;15.93;;;;;;;4.04;100.00;94527.28;30542458;19;20041;-83
2021/12/27 08:59:42;;;;;;;199.52;13.70;;;;;;;4.21;100.00;94526.75;30531457;19;20010;-84
2021/12/27 09:09:44;;;;;;;95.53;9.57;;;;;;;4.30;100.00;94524.22;30534419;19;20014;-84
2021/12/27 09:19:45;;;;;;;122.40;9.82;;;;;;;4.45;100.00;94531.03;30531283;19;20040;-84
2021/12/27 09:29:45;;;;;;;70.97;8.35;;;;;;;4.56;100.00;94527.19;30550491;19;20007;-85
2021/12/27 09:49:52;;;;;;;;;;;;;;;4.74;100.00;94512.41;30570284;19;20019;-85
2021/12/27 09:59:53;;;;;;;41.13;8.38;;;;;;;4.78;100.00;94521.25;30569458;19;19921;-84
2021/12/27 10:09:55;;;;;;;24.48;8.43;;;;;;;4.75;100.00;94514.75;30541812;19;20010;-84
2021/12/27 10:19:56;;;;;;;372.83;25.27;;;;;;;4.96;100.00;94499.38;30559241;19;20547;-85
2021/12/27 10:29:56;;;;;;;538.42;35.90;;;;;;;5.08;100.00;94495.47;30560615;19;20470;-85
2021/12/27 10:50:24;;;;;;;597.25;37.50;;;;;;;5.23;100.00;94474.94;30569794;19;20010;-84
2021/12/27 11:00:30;;;;;;;699.72;38.70;;;;;;;5.22;100.00;94470.75;30542969;19;20018;-85
2021/12/27 11:20:46;;;;;;;674.13;40.97;;;;;;;5.19;100.00;94452.97;30569123;19;20014;-84
2021/12/27 11:30:46;;;;;;;590.13;37.60;;;;;;;5.26;100.00;94457.03;30545622;19;20024;-84
2021/12/27 11:41:00;;;;;;;552.13;35.10;;;;;;;5.23;100.00;94448.69;30544925;19;20014;-84
2021/12/27 11:51:08;;;;;;;479.77;30.65;;;;;;;5.33;100.00;94437.19;30544244;19;20279;-84
2021/12/27 12:01:20;;;;;;;623.72;41.33;;;;;;;5.34;100.00;94438.72;30500036;19;20007;-84
2021/12/27 12:11:32;;;;;;;482.75;35.10;;;;;;;5.39;100.00;94429.97;30516326;19;20015;-84
2021/12/27 12:21:39;;;;;;;234.60;21.13;;;;;;;5.45;100.00;94441.91;30520892;19;20168;-84
2021/12/27 12:31:40;;;;;;;862.33;55.63;;;;;;;5.55;100.00;94438.25;30533821;19;20038;-85
2021/12/27 12:41:43;;;;;;;670.75;46.85;;;;;;;5.58;100.00;94435.81;30544777;19;20366;-85
2021/12/27 12:51:54;;;;;;;459.38;32.90;;;;;;;5.52;100.00;94431.75;30544132;19;20011;-85
2021/12/27 13:02:04;;;;;;;649.00;47.85;;;;;;;5.46;100.00;94430.34;30533721;19;20042;-85
2021/12/27 13:12:04;;;;;;;289.05;28.75;;;;;;;5.54;100.00;94423.59;30552025;19;20018;-85
2021/12/27 13:22:05;;;;;;;38.92;15.43;;;;;;;5.63;100.00;94408.66;30560067;19;20077;-85
2021/12/27 13:32:06;;;;;;;38.97;17.73;;;;;;;5.70;100.00;94401.13;30568227;19;20397;-85
2021/12/27 13:42:07;;;;;;;32.17;14.43;;;;;;;5.63;100.00;94391.03;30540274;19;20044;-85
2021/12/27 13:52:12;;;;;;;36.38;17.00;;;;;;;5.70;100.00;94382.75;30577838;19;20384;-86
2021/12/27 14:02:14;;;;;;;43.63;19.85;;;;;;;5.70;100.00;94374.06;30549397;19;20014;-86
2021/12/27 14:12:23;;;;;;;35.88;18.45;;;;;;;5.69;100.00;94360.16;30534557;19;20368;-86
2021/12/27 14:22:24;;;;;;;49.22;21.60;;;;;;;5.76;100.00;94346.59;30567341;19;20510;-85
2021/12/27 14:32:24;;;;;;;47.83;24.33;;;;;;;5.81;100.00;94351.72;30557481;19;20360;-85
2021/12/27 14:42:26;;;;;;;48.35;26.63;;;;;;;5.77;100.00;94363.91;30550958;19;20058;-85
2021/12/27 14:52:26;;;;;;;32.63;18.70;;;;;;;5.80;100.00;94350.16;30564117;19;20023;-84
2021/12/27 15:02:27;;;;;;;31.58;19.05;;;;;;;5.76;100.00;94342.13;30541626;19;20010;-85
2021/12/27 15:12:28;;;;;;;26.17;14.98;;;;;;;5.70;100.00;94347.81;30541756;19;20006;-85
2021/12/27 15:22:28;;;;;;;24.05;14.40;;;;;;;5.69;100.00;94356.78;30532491;19;20374;-85
2021/12/27 15:32:29;;;;;;;23.38;14.05;;;;;;;5.66;100.00;94357.34;30529757;19;20007;-84
2021/12/27 15:42:29;;;;;;;28.52;16.63;;;;;;;5.62;100.00;94357.22;30547516;19;20013;-85
2021/12/27 15:52:30;;;;;;;32.33;19.02;;;;;;;5.63;100.00;94351.63;30528704;19;20014;-85
2021/12/27 16:02:30;;;;;;;35.22;20.30;;;;;;;5.62;100.00;94357.97;30539641;19;20418;-84
2021/12/27 16:12:31;;;;;;;28.40;17.58;;;;;;;5.64;100.00;94355.81;30506583;19;20006;-85
2021/12/27 16:22:31;;;;;;;34.47;20.55;;;;;;;5.58;100.00;94357.03;30554924;19;20014;-86
2021/12/27 16:32:32;;;;;;;32.90;19.80;;;;;;;5.57;100.00;94360.72;30546211;19;20014;-84
2021/12/27 16:42:32;;;;;;;32.33;19.48;;;;;;;5.58;100.00;94358.88;30535377;19;20027;-83
2021/12/27 16:52:33;;;;;;;27.13;16.63;;;;;;;5.57;100.00;94368.59;30548197;19;20098;-83
2021/12/27 17:02:33;;;;;;;20.63;12.77;;;;;;;5.54;100.00;94360.56;30532300;19;20039;-82
2021/12/27 17:12:34;;;;;;;19.05;12.75;;;;;;;5.53;100.00;94364.25;30521601;19;20333;-85
2021/12/27 17:22:34;;;;;;;20.38;12.50;;;;;;;5.50;100.00;94362.25;30542658;19;20014;-82
2021/12/27 17:32:34;;;;;;;21.85;12.85;;;;;;;5.46;100.00;94369.16;30528411;19;20427;-84
2021/12/27 17:42:35;;;;;;;19.85;13.30;;;;;;;5.41;100.00;94378.72;30531782;19;20328;-83
2021/12/27 17:52:35;;;;;;;17.48;9.82;;;;;;;5.40;100.00;94373.75;30540187;19;20018;-84
2021/12/27 18:02:36;;;;;;;18.77;11.77;;;;;;;5.39;100.00;94378.25;30560629;19;20018;-83
2021/12/27 18:12:37;;;;;;;14.95;9.80;;;;;;;5.37;100.00;94371.72;30546150;19;20003;-84
2021/12/27 18:22:38;;;;;;;19.08;11.77;;;;;;;5.33;100.00;94350.56;30554685;19;20006;-83
2021/12/27 18:32:38;;;;;;;12.55;8.10;;;;;;;5.37;100.00;94367.25;30548205;19;20033;-84
2021/12/27 18:42:38;;;;;;;12.88;8.25;;;;;;;5.37;100.00;94376.97;30551356;19;20348;-83
2021/12/27 18:52:39;;;;;;;14.57;8.00;;;;;;;5.36;100.00;94391.94;30556550;19;20139;-83
2021/12/27 19:02:41;;;;;;;15.75;9.73;;;;;;;5.35;100.00;94394.88;30563202;19;20031;-83
2021/12/27 19:12:42;;;;;;;15.95;10.07;;;;;;;5.34;100.00;94398.59;30513990;19;20010;-82
2021/12/27 19:22:43;;;;;;;15.80;10.00;;;;;;;5.36;100.00;94406.94;30549500;19;20010;-84
2021/12/27 19:32:44;;;;;;;21.38;12.10;;;;;;;5.36;100.00;94407.72;30546273;19;20009;-83
2021/12/27 19:42:44;;;;;;;25.30;13.20;;;;;;;5.36;100.00;94417.44;30538815;19;20014;-83
2021/12/27 19:52:45;;;;;;;25.45;13.85;;;;;;;5.34;100.00;94409.09;30553642;19;20006;-83
2021/12/27 20:02:46;;;;;;;24.10;13.43;;;;;;;5.36;100.00;94405.06;30511434;19;20011;-83
2021/12/27 20:12:48;;;;;;;24.38;12.90;;;;;;;5.46;100.00;94408.56;30493243;19;20010;-85
2021/12/27 20:22:49;;;;;;;23.70;12.98;;;;;;;5.48;100.00;94409.03;30512601;19;20022;-83
2021/12/27 20:32:50;;;;;;;22.30;12.30;;;;;;;5.52;100.00;94423.88;30510953;19;20010;-83
2021/12/27 20:42:52;;;;;;;30.40;14.55;;;;;;;5.54;100.00;94426.22;30453808;19;20334;-85
2021/12/27 20:52:53;;;;;;;58.28;17.45;;;;;;;5.61;100.00;94416.06;30500087;19;20025;-84
2021/12/27 21:02:53;;;;;;;39.95;15.80;;;;;;;5.63;100.00;94416.53;30490308;19;20003;-85
2021/12/27 21:12:54;;;;;;;28.63;12.63;;;;;;;5.76;100.00;94405.19;30452574;19;20366;-84
2021/12/27 21:22:56;;;;;;;28.02;11.82;;;;;;;5.71;100.00;94404.53;30479442;19;20015;-84
2021/12/27 21:32:57;;;;;;;17.42;8.15;;;;;;;5.75;100.00;94395.75;30513214;19;20011;-87
2021/12/27 21:42:57;;;;;;;21.98;8.77;;;;;;;5.88;100.00;94398.59;30454492;19;20014;-85
2021/12/27 21:53:00;;;;;;;23.83;9.45;;;;;;;5.84;100.00;94386.06;30444964;19;20033;-84
2021/12/27 22:03:02;;;;;;;20.27;9.18;;;;;;;5.93;100.00;94377.44;30445348;19;20006;-84
2021/12/27 22:13:03;;;;;;;29.83;9.13;;;;;;;5.91;100.00;94367.22;30451241;19;20026;-85
2021/12/27 22:23:04;;;;;;;28.88;7.43;;;;;;;6.01;100.00;94367.00;30509911;19;20494;-87
2021/12/27 22:33:05;;;;;;;37.92;8.05;;;;;;;6.08;100.00;94371.81;30532838;19;20006;-86
2021/12/27 22:43:08;;;;;;;51.40;8.00;;;;;;;6.12;100.00;94364.09;30538736;19;20010;-84
2021/12/27 22:53:08;;;;;;;53.28;8.55;;;;;;;6.20;100.00;94358.84;30532802;19;20109;-84
2021/12/27 23:03:11;;;;;;;43.38;8.02;;;;;;;6.21;100.00;94346.47;30448812;19;20022;-73
2021/12/27 23:13:11;;;;;;;44.35;8.88;;;;;;;6.24;100.00;94333.50;30495820;19;20035;-74
2021/12/27 23:23:12;;;;;;;63.07;8.30;;;;;;;6.31;100.00;94316.50;30512712;19;20073;-73
2021/12/27 23:43:15;;;;;;;53.70;6.57;;;;;;;6.41;100.00;94290.69;30515054;19;20027;-73
2021/12/27 23:53:16;;;;;;;60.88;7.72;;;;;;;6.45;100.00;94269.81;30542634;19;20007;-73
